createdAt,value
2018-04-08T00:00:24.249Z,11.70
2018-04-08T00:01:24.267Z,11.20
2018-04-08T00:02:24.281Z,12.00
2018-04-08T00:03:24.316Z,12.70
2018-04-08T00:04:24.330Z,12.50
2018-04-08T00:05:24.353Z,11.90
2018-04-08T00:06:24.367Z,13.00
2018-04-08T00:07:24.393Z,12.00
2018-04-08T00:08:24.415Z,11.60
2018-04-08T00:09:24.440Z,13.00
2018-04-08T00:10:24.458Z,12.00
2018-04-08T00:11:24.481Z,12.60
2018-04-08T00:12:24.499Z,12.20
2018-04-08T00:13:24.527Z,12.50
2018-04-08T00:14:24.540Z,12.50
2018-04-08T00:15:24.565Z,11.90
2018-04-08T00:16:24.590Z,12.20
2018-04-08T00:17:24.610Z,11.80
2018-04-08T00:18:24.635Z,11.80
2018-04-08T00:19:24.653Z,11.00
2018-04-08T00:20:24.676Z,10.40
2018-04-08T00:21:24.696Z,11.40
2018-04-08T00:22:24.723Z,11.90
2018-04-08T00:23:24.735Z,11.40
2018-04-08T00:24:24.765Z,11.50
2018-04-08T00:25:24.780Z,10.90
2018-04-08T00:26:24.807Z,10.00
2018-04-08T00:27:24.829Z,10.70
2018-04-08T00:28:24.840Z,10.30
2018-04-08T00:29:24.869Z,9.90
2018-04-08T00:30:24.888Z,10.80
2018-04-08T00:31:24.912Z,10.40
2018-04-08T00:32:24.936Z,10.70
2018-04-08T00:33:24.959Z,10.60
2018-04-08T00:34:24.976Z,10.40
2018-04-08T00:35:25.002Z,10.50
2018-04-08T00:36:25.014Z,10.00
2018-04-08T00:37:25.042Z,10.90
2018-04-08T00:38:25.063Z,10.40
2018-04-08T00:39:25.087Z,11.40
2018-04-08T00:40:25.103Z,11.10
2018-04-08T00:41:25.121Z,10.80
2018-04-08T00:42:25.154Z,11.30
2018-04-08T00:43:25.170Z,10.90
2018-04-08T00:44:25.224Z,11.60
2018-04-08T00:45:25.209Z,12.30
2018-04-08T00:46:25.233Z,11.50
2018-04-08T00:47:25.253Z,10.90
2018-04-08T00:48:25.277Z,10.70
2018-04-08T00:49:25.292Z,11.30
2018-04-08T00:50:25.326Z,11.30
2018-04-08T00:51:25.336Z,10.90
2018-04-08T00:52:25.364Z,10.50
2018-04-08T00:53:25.385Z,10.80
2018-04-08T00:54:25.418Z,10.80
2018-04-08T00:55:25.426Z,10.40
2018-04-08T00:56:25.451Z,9.90
2018-04-08T00:57:25.473Z,10.70
2018-04-08T00:58:25.492Z,11.00
2018-04-08T00:59:25.542Z,11.40
2018-04-08T01:00:25.528Z,11.40
2018-04-08T01:01:25.549Z,11.70
2018-04-08T01:02:25.579Z,11.60
2018-04-08T01:03:25.593Z,11.10
2018-04-08T01:04:25.621Z,11.50
2018-04-08T01:05:25.638Z,10.80
2018-04-08T01:06:25.661Z,11.20
2018-04-08T01:07:25.680Z,11.20
2018-04-08T01:08:25.707Z,11.30
2018-04-08T01:09:25.722Z,10.70
2018-04-08T01:10:25.741Z,11.30
2018-04-08T01:11:25.766Z,10.60
2018-04-08T01:12:25.784Z,10.60
2018-04-08T01:13:25.811Z,10.60
2018-04-08T01:14:25.830Z,11.60
2018-04-08T01:15:25.848Z,10.00
2018-04-08T01:16:25.877Z,9.60
2018-04-08T01:17:25.894Z,9.90
2018-04-08T01:18:25.917Z,10.80
2018-04-08T01:19:25.936Z,9.90
2018-04-08T01:20:25.960Z,9.70
2018-04-08T01:21:25.976Z,10.50
2018-04-08T01:22:26.007Z,10.30
2018-04-08T01:23:26.019Z,10.30
2018-04-08T01:24:26.052Z,10.10
2018-04-08T01:25:26.067Z,9.80
2018-04-08T01:26:26.090Z,10.20
2018-04-08T01:27:26.104Z,10.50
2018-04-08T01:28:26.127Z,10.60
2018-04-08T01:29:26.147Z,10.10
2018-04-08T01:30:26.172Z,10.20
2018-04-08T01:31:26.192Z,10.20
2018-04-08T01:32:26.216Z,10.70
2018-04-08T01:33:26.230Z,10.40
2018-04-08T01:34:26.260Z,11.10
2018-04-08T01:35:26.274Z,11.20
2018-04-08T01:36:26.302Z,10.00
2018-04-08T01:37:26.319Z,10.50
2018-04-08T01:38:26.343Z,10.80
2018-04-08T01:39:26.368Z,10.60
2018-04-08T01:40:26.384Z,10.40
2018-04-08T01:41:26.402Z,9.90
2018-04-08T01:42:26.428Z,9.90
2018-04-08T01:43:26.446Z,9.50
2018-04-08T01:44:26.464Z,10.20
2018-04-08T01:45:26.490Z,10.20
2018-04-08T01:46:26.510Z,10.10
2018-04-08T01:47:26.528Z,9.80
2018-04-08T01:48:26.559Z,10.00
2018-04-08T01:49:26.579Z,9.60
2018-04-08T01:50:26.591Z,9.00
2018-04-08T01:51:26.615Z,9.90
2018-04-08T01:52:26.639Z,9.70
2018-04-08T01:53:26.661Z,8.70
2018-04-08T01:54:26.678Z,9.40
2018-04-08T01:55:26.697Z,9.60
2018-04-08T01:56:26.725Z,8.80
2018-04-08T01:57:26.744Z,8.90
2018-04-08T01:58:26.762Z,9.80
2018-04-08T01:59:26.786Z,9.00
2018-04-08T02:00:26.812Z,9.40
2018-04-08T02:01:26.832Z,9.80
2018-04-08T02:02:26.852Z,10.40
2018-04-08T02:03:26.875Z,9.10
2018-04-08T02:04:26.886Z,9.00
2018-04-08T02:05:26.907Z,9.70
2018-04-08T02:06:26.937Z,9.00
2018-04-08T02:07:26.955Z,8.90
2018-04-08T02:08:26.973Z,9.50
2018-04-08T02:09:26.995Z,9.80
2018-04-08T02:10:27.019Z,8.90
2018-04-08T02:11:27.042Z,9.10
2018-04-08T02:12:27.054Z,8.60
2018-04-08T02:13:27.134Z,8.90
2018-04-08T02:14:27.108Z,9.60
2018-04-08T02:15:27.122Z,9.20
2018-04-08T02:16:27.138Z,9.30
2018-04-08T02:17:27.163Z,9.90
2018-04-08T02:18:27.188Z,9.80
2018-04-08T02:19:27.231Z,9.40
2018-04-08T02:20:27.225Z,9.30
2018-04-08T02:21:27.249Z,9.50
2018-04-08T02:22:27.264Z,9.70
2018-04-08T02:23:27.288Z,9.00
2018-04-08T02:24:27.318Z,8.90
2018-04-08T02:25:27.333Z,9.30
2018-04-08T02:26:27.351Z,10.00
2018-04-08T02:27:27.369Z,8.90
2018-04-08T02:28:27.398Z,8.60
2018-04-08T02:29:27.411Z,9.30
2018-04-08T02:30:27.441Z,8.80
2018-04-08T02:31:27.461Z,9.10
2018-04-08T02:32:27.481Z,8.80
2018-04-08T02:33:27.503Z,8.60
2018-04-08T02:34:27.517Z,9.10
2018-04-08T02:35:27.540Z,8.70
2018-04-08T02:36:27.563Z,8.40
2018-04-08T02:37:27.579Z,9.00
2018-04-08T02:38:27.608Z,9.20
2018-04-08T02:39:27.621Z,8.30
2018-04-08T02:40:27.657Z,8.70
2018-04-08T02:41:27.665Z,8.90
2018-04-08T02:42:27.689Z,8.60
2018-04-08T02:43:27.707Z,8.30
2018-04-08T02:44:27.730Z,8.50
2018-04-08T02:45:27.749Z,8.80
2018-04-08T02:46:27.774Z,9.10
2018-04-08T02:47:27.791Z,8.70
2018-04-08T02:48:27.814Z,9.40
2018-04-08T02:49:27.828Z,9.70
2018-04-08T02:50:27.866Z,9.50
2018-04-08T02:51:27.872Z,9.10
2018-04-08T02:52:27.900Z,9.30
2018-04-08T02:53:27.915Z,8.90
2018-04-08T02:54:27.939Z,9.30
2018-04-08T02:55:27.957Z,9.00
2018-04-08T02:56:27.979Z,9.20
2018-04-08T02:57:27.997Z,9.30
2018-04-08T02:58:28.026Z,9.50
2018-04-08T02:59:28.037Z,9.00
2018-04-08T03:00:28.067Z,9.40
2018-04-08T03:01:28.082Z,9.20
2018-04-08T03:02:28.108Z,9.10
2018-04-08T03:03:28.124Z,8.90
2018-04-08T03:04:28.150Z,9.40
2018-04-08T03:05:28.165Z,9.80
2018-04-08T03:06:28.189Z,9.10
2018-04-08T03:07:28.208Z,8.50
2018-04-08T03:08:28.230Z,9.20
2018-04-08T03:09:28.252Z,9.20
2018-04-08T03:10:28.269Z,9.50
2018-04-08T03:11:28.289Z,9.30
2018-04-08T03:12:28.315Z,9.30
2018-04-08T03:13:28.337Z,9.80
2018-04-08T03:14:28.350Z,8.60
2018-04-08T03:15:28.373Z,9.20
2018-04-08T03:16:28.395Z,9.00
2018-04-08T03:17:28.420Z,9.20
2018-04-08T03:18:28.437Z,8.90
2018-04-08T03:19:28.457Z,8.90
2018-04-08T03:20:28.474Z,9.40
2018-04-08T03:21:28.495Z,9.10
2018-04-08T03:22:28.524Z,9.30
2018-04-08T03:23:28.541Z,8.90
2018-04-08T03:24:28.558Z,9.30
2018-04-08T03:25:28.584Z,9.60
2018-04-08T03:26:28.606Z,9.30
2018-04-08T03:27:28.622Z,9.20
2018-04-08T03:28:28.645Z,8.60
2018-04-08T03:29:28.663Z,8.70
2018-04-08T03:30:28.690Z,9.10
2018-04-08T03:31:28.702Z,9.00
2018-04-08T03:32:28.754Z,9.50
2018-04-08T03:33:28.742Z,9.00
2018-04-08T03:34:28.767Z,8.90
2018-04-08T03:35:28.791Z,9.10
2018-04-08T03:36:28.812Z,9.50
2018-04-08T03:37:28.834Z,9.30
2018-04-08T03:38:28.845Z,9.00
2018-04-08T03:39:28.870Z,9.00
2018-04-08T03:40:28.892Z,8.90
2018-04-08T03:41:28.918Z,8.50
2018-04-08T03:42:28.933Z,8.20
2018-04-08T03:43:28.956Z,8.20
2018-04-08T03:44:28.972Z,8.10
2018-04-08T03:45:29.002Z,8.50
2018-04-08T03:46:29.010Z,8.80
2018-04-08T03:47:29.040Z,8.90
2018-04-08T03:48:29.059Z,9.20
2018-04-08T03:49:29.077Z,8.80
2018-04-08T03:50:29.100Z,8.20
2018-04-08T03:51:29.119Z,9.00
2018-04-08T03:52:29.141Z,8.50
2018-04-08T03:53:29.154Z,8.70
2018-04-08T03:54:29.184Z,8.30
2018-04-08T03:55:29.196Z,8.10
2018-04-08T03:56:29.225Z,9.30
2018-04-08T03:57:29.241Z,8.80
2018-04-08T03:58:29.265Z,9.40
2018-04-08T03:59:29.288Z,9.50
2018-04-08T04:00:29.304Z,8.90
2018-04-08T04:01:29.321Z,9.30
2018-04-08T04:02:29.350Z,8.90
2018-04-08T04:03:29.368Z,8.70
2018-04-08T04:04:29.386Z,8.90
2018-04-08T04:05:29.403Z,9.30
2018-04-08T04:06:29.435Z,9.00
2018-04-08T04:07:29.447Z,8.70
2018-04-08T04:08:29.473Z,9.30
2018-04-08T04:09:29.489Z,9.30
2018-04-08T04:10:29.513Z,9.20
2018-04-08T04:11:29.531Z,8.90
2018-04-08T04:12:29.554Z,9.60
2018-04-08T04:13:29.573Z,9.40
2018-04-08T04:14:29.589Z,9.40
2018-04-08T04:15:29.621Z,9.30
2018-04-08T04:16:29.629Z,9.00
2018-04-08T04:17:29.657Z,8.90
2018-04-08T04:18:29.676Z,9.30
2018-04-08T04:19:29.696Z,9.10
2018-04-08T04:20:29.714Z,9.30
2018-04-08T04:21:29.733Z,9.50
2018-04-08T04:22:29.762Z,8.70
2018-04-08T04:23:29.775Z,9.00
2018-04-08T04:24:29.803Z,8.70
2018-04-08T04:25:29.819Z,9.30
2018-04-08T04:26:29.844Z,9.20
2018-04-08T04:27:29.859Z,8.90
2018-04-08T04:28:29.882Z,8.80
2018-04-08T04:29:29.903Z,9.20
2018-04-08T04:30:29.927Z,9.70
2018-04-08T04:31:29.940Z,9.60
2018-04-08T04:32:29.970Z,8.60
2018-04-08T04:33:29.982Z,9.40
2018-04-08T04:34:30.007Z,8.80
2018-04-08T04:35:30.031Z,9.40
2018-04-08T04:36:30.047Z,9.50
2018-04-08T04:37:30.070Z,9.40
2018-04-08T04:38:30.089Z,9.50
2018-04-08T04:39:30.107Z,9.30
2018-04-08T04:40:30.130Z,9.30
2018-04-08T04:41:30.151Z,10.00
2018-04-08T04:42:30.170Z,8.80
2018-04-08T04:43:30.191Z,9.30
2018-04-08T04:44:30.216Z,9.30
2018-04-08T04:45:30.254Z,9.20
2018-04-08T04:46:30.254Z,9.20
2018-04-08T04:47:30.277Z,8.80
2018-04-08T04:48:30.289Z,8.40
2018-04-08T04:49:30.311Z,8.80
2018-04-08T04:50:30.334Z,9.10
2018-04-08T04:51:30.353Z,8.90
2018-04-08T04:52:30.373Z,9.30
2018-04-08T04:53:30.392Z,9.10
2018-04-08T04:54:30.423Z,9.60
2018-04-08T04:55:30.436Z,9.30
2018-04-08T04:56:30.461Z,9.00
2018-04-08T04:57:30.477Z,8.70
2018-04-08T04:58:30.500Z,8.60
2018-04-08T04:59:30.519Z,8.70
2018-04-08T05:00:30.541Z,8.50
2018-04-08T05:01:30.562Z,8.40
2018-04-08T05:02:30.581Z,8.70
2018-04-08T05:03:30.604Z,9.20
2018-04-08T05:04:30.623Z,9.60
2018-04-08T05:05:30.652Z,8.90
2018-04-08T05:06:30.666Z,9.30
2018-04-08T05:07:30.683Z,8.40
2018-04-08T05:08:30.700Z,8.70
2018-04-08T05:09:30.724Z,8.80
2018-04-08T05:10:30.747Z,8.70
2018-04-08T05:11:30.766Z,9.20
2018-04-08T05:12:30.788Z,8.80
2018-04-08T05:13:30.805Z,9.20
2018-04-08T05:14:30.833Z,9.20
2018-04-08T05:15:30.845Z,8.60
2018-04-08T05:16:30.873Z,8.20
2018-04-08T05:17:30.895Z,8.80
2018-04-08T05:18:30.907Z,9.40
2018-04-08T05:19:30.935Z,8.60
2018-04-08T05:20:30.954Z,8.90
2018-04-08T05:21:30.974Z,9.20
2018-04-08T05:22:30.991Z,8.30
2018-04-08T05:23:31.011Z,8.90
2018-04-08T05:24:31.034Z,9.20
2018-04-08T05:25:31.057Z,9.20
2018-04-08T05:26:31.075Z,8.90
2018-04-08T05:27:31.098Z,8.70
2018-04-08T05:28:31.117Z,8.90
2018-04-08T05:29:31.145Z,9.20
2018-04-08T05:30:31.156Z,8.60
2018-04-08T05:31:31.188Z,9.20
2018-04-08T05:32:31.195Z,9.20
2018-04-08T05:33:31.223Z,9.10
2018-04-08T05:34:31.246Z,9.10
2018-04-08T05:35:31.259Z,8.50
2018-04-08T05:36:31.290Z,8.90
2018-04-08T05:37:31.304Z,9.00
2018-04-08T05:38:31.327Z,9.10
2018-04-08T05:39:31.355Z,9.70
2018-04-08T05:40:31.369Z,9.10
2018-04-08T05:41:31.387Z,9.70
2018-04-08T05:42:31.414Z,10.60
2018-04-08T05:43:31.431Z,9.00
2018-04-08T05:44:31.451Z,8.80
2018-04-08T05:45:31.468Z,8.90
2018-04-08T05:46:31.496Z,8.70
2018-04-08T05:47:31.510Z,8.80
2018-04-08T05:48:31.537Z,8.10
2018-04-08T05:49:31.554Z,8.30
2018-04-08T05:50:31.578Z,8.80
2018-04-08T05:51:31.597Z,8.70
2018-04-08T05:52:31.613Z,8.10
2018-04-08T05:53:31.635Z,8.50
2018-04-08T05:54:31.658Z,9.80
2018-04-08T05:55:31.679Z,8.60
2018-04-08T05:56:31.704Z,8.50
2018-04-08T05:57:31.723Z,8.10
2018-04-08T05:58:31.743Z,8.20
2018-04-08T05:59:31.765Z,8.40
2018-04-08T06:00:31.781Z,8.50
2018-04-08T06:01:31.810Z,8.30
2018-04-08T06:02:31.823Z,8.90
2018-04-08T06:03:31.853Z,8.50
2018-04-08T06:04:31.865Z,8.60
2018-04-08T06:05:31.894Z,8.70
2018-04-08T06:06:31.910Z,8.50
2018-04-08T06:07:31.929Z,8.70
2018-04-08T06:08:31.954Z,8.30
2018-04-08T06:09:31.979Z,9.20
2018-04-08T06:10:31.998Z,8.30
2018-04-08T06:11:32.019Z,8.10
2018-04-08T06:12:32.039Z,8.60
2018-04-08T06:13:32.061Z,8.40
2018-04-08T06:14:32.081Z,8.90
2018-04-08T06:15:32.108Z,8.60
2018-04-08T06:16:32.117Z,7.90
2018-04-08T06:17:32.179Z,8.40
2018-04-08T06:18:32.173Z,8.70
2018-04-08T06:19:32.186Z,8.90
2018-04-08T06:20:32.205Z,8.70
2018-04-08T06:21:32.226Z,8.60
2018-04-08T06:22:32.248Z,8.70
2018-04-08T06:23:32.268Z,8.40
2018-04-08T06:24:32.290Z,8.50
2018-04-08T06:25:32.307Z,8.70
2018-04-08T06:26:32.335Z,8.80
2018-04-08T06:27:32.349Z,8.90
2018-04-08T06:28:32.380Z,8.60
2018-04-08T06:29:32.396Z,9.40
2018-04-08T06:30:32.414Z,9.10
2018-04-08T06:31:32.441Z,16.80
2018-04-08T06:32:32.456Z,11.60
2018-04-08T06:33:32.482Z,11.60
2018-04-08T06:34:32.496Z,9.50
2018-04-08T06:35:32.527Z,9.10
2018-04-08T06:36:32.538Z,9.10
2018-04-08T06:37:32.559Z,8.80
2018-04-08T06:38:32.589Z,9.40
2018-04-08T06:39:32.602Z,9.00
2018-04-08T06:40:32.631Z,8.90
2018-04-08T06:41:32.647Z,9.30
2018-04-08T06:42:32.672Z,9.30
2018-04-08T06:43:32.705Z,8.80
2018-04-08T06:44:32.714Z,8.80
2018-04-08T06:45:32.732Z,9.10
2018-04-08T06:46:32.757Z,8.80
2018-04-08T06:47:32.781Z,8.80
2018-04-08T06:48:32.799Z,8.70
2018-04-08T06:49:32.816Z,8.60
2018-04-08T06:50:32.845Z,8.90
2018-04-08T06:51:32.866Z,8.90
2018-04-08T06:52:32.883Z,9.00
2018-04-08T06:53:32.909Z,9.40
2018-04-08T06:54:32.927Z,8.90
2018-04-08T06:55:32.951Z,8.40
2018-04-08T06:56:32.966Z,9.10
2018-04-08T06:57:32.987Z,9.10
2018-04-08T06:58:33.018Z,9.20
2018-04-08T06:59:33.042Z,8.90
2018-04-08T07:00:33.053Z,8.70
2018-04-08T07:01:33.078Z,8.90
2018-04-08T07:02:33.097Z,7.90
2018-04-08T07:03:33.116Z,8.40
2018-04-08T07:04:33.156Z,8.90
2018-04-08T07:05:33.167Z,9.00
2018-04-08T07:06:33.180Z,8.60
2018-04-08T07:07:33.208Z,8.80
2018-04-08T07:08:33.241Z,9.00
2018-04-08T07:09:33.248Z,8.40
2018-04-08T07:10:33.275Z,8.70
2018-04-08T07:11:33.291Z,9.10
2018-04-08T07:12:33.318Z,8.40
2018-04-08T07:13:33.339Z,8.70
2018-04-08T07:14:33.354Z,8.90
2018-04-08T07:15:33.383Z,8.70
2018-04-08T07:16:33.403Z,8.80
2018-04-08T07:17:33.422Z,8.90
2018-04-08T07:18:33.580Z,8.90
2018-04-08T07:19:33.467Z,8.60
2018-04-08T07:20:33.491Z,8.80
2018-04-08T07:21:33.511Z,8.70
2018-04-08T07:22:33.538Z,8.90
2018-04-08T07:23:33.552Z,9.30
2018-04-08T07:24:33.603Z,9.00
2018-04-08T07:25:33.598Z,8.50
2018-04-08T07:26:33.624Z,9.20
2018-04-08T07:27:33.641Z,8.30
2018-04-08T07:28:33.667Z,9.20
2018-04-08T07:29:33.684Z,9.10
2018-04-08T07:30:33.714Z,9.30
2018-04-08T07:31:33.735Z,9.00
2018-04-08T07:32:33.758Z,9.00
2018-04-08T07:33:33.772Z,8.90
2018-04-08T07:34:33.803Z,8.90
2018-04-08T07:35:33.817Z,9.40
2018-04-08T07:36:33.847Z,9.40
2018-04-08T07:37:33.863Z,9.30
2018-04-08T07:38:33.889Z,8.60
2018-04-08T07:39:33.910Z,8.50
2018-04-08T07:40:33.935Z,9.00
2018-04-08T07:41:33.952Z,8.70
2018-04-08T07:42:33.981Z,8.70
2018-04-08T07:43:33.998Z,9.10
2018-04-08T07:44:34.028Z,9.40
2018-04-08T07:45:34.049Z,8.80
2018-04-08T07:46:34.071Z,8.70
2018-04-08T07:47:34.095Z,8.40
2018-04-08T07:48:34.125Z,8.30
2018-04-08T07:49:34.139Z,8.80
2018-04-08T07:50:34.163Z,9.20
2018-04-08T07:51:34.182Z,9.10
2018-04-08T07:52:34.208Z,8.60
2018-04-08T07:53:34.227Z,9.20
2018-04-08T07:54:34.260Z,10.00
2018-04-08T07:55:34.275Z,8.70
2018-04-08T07:56:34.306Z,8.70
2018-04-08T07:57:34.330Z,8.60
2018-04-08T07:58:34.347Z,8.90
2018-04-08T07:59:34.374Z,9.00
2018-04-08T08:00:34.396Z,9.20
2018-04-08T08:01:34.422Z,8.60
2018-04-08T08:02:34.453Z,8.90
2018-04-08T08:03:34.475Z,8.50
2018-04-08T08:04:34.498Z,8.30
2018-04-08T08:05:34.519Z,8.80
2018-04-08T08:06:34.553Z,8.80
2018-04-08T08:07:34.574Z,9.00
2018-04-08T08:08:34.596Z,8.80
2018-04-08T08:09:34.622Z,9.20
2018-04-08T08:10:34.651Z,9.00
2018-04-08T08:11:34.678Z,9.10
2018-04-08T08:12:34.695Z,9.00
2018-04-08T08:13:34.719Z,9.00
2018-04-08T08:14:34.753Z,8.70
2018-04-08T08:15:34.778Z,9.40
2018-04-08T08:16:34.802Z,8.70
2018-04-08T08:17:34.829Z,9.00
2018-04-08T08:18:34.846Z,8.80
2018-04-08T08:19:34.873Z,8.90
2018-04-08T08:20:34.902Z,9.40
2018-04-08T08:21:34.930Z,8.50
2018-04-08T08:22:34.947Z,9.20
2018-04-08T08:23:35.023Z,8.60
2018-04-08T08:24:35.005Z,8.90
2018-04-08T08:25:35.031Z,8.40
2018-04-08T08:26:35.056Z,8.80
2018-04-08T08:27:35.079Z,9.00
2018-04-08T08:28:35.113Z,8.40
2018-04-08T08:29:35.139Z,8.60
2018-04-08T08:30:35.162Z,8.60
2018-04-08T08:31:35.192Z,9.00
2018-04-08T08:32:35.215Z,8.90
2018-04-08T08:33:35.250Z,9.10
2018-04-08T08:34:35.267Z,9.30
2018-04-08T08:35:35.299Z,8.90
2018-04-08T08:36:35.322Z,9.30
2018-04-08T08:37:35.360Z,9.60
2018-04-08T08:38:35.379Z,8.90
2018-04-08T08:39:35.415Z,9.80
2018-04-08T08:40:35.435Z,9.40
2018-04-08T08:41:35.470Z,10.10
2018-04-08T08:42:35.494Z,10.00
2018-04-08T08:43:35.549Z,9.60
2018-04-08T08:44:35.550Z,9.50
2018-04-08T08:45:35.584Z,9.60
2018-04-08T08:46:35.609Z,9.30
2018-04-08T08:47:35.639Z,9.50
2018-04-08T08:48:35.660Z,9.70
2018-04-08T08:49:35.687Z,9.90
2018-04-08T08:50:35.724Z,9.60
2018-04-08T08:51:35.745Z,9.50
2018-04-08T08:52:35.775Z,9.70
2018-04-08T08:53:35.801Z,9.80
2018-04-08T08:54:35.838Z,10.10
2018-04-08T08:55:35.865Z,9.40
2018-04-08T08:56:35.889Z,10.00
2018-04-08T08:57:35.921Z,9.60
2018-04-08T08:58:35.950Z,9.50
2018-04-08T08:59:35.986Z,10.10
2018-04-08T09:00:36.008Z,9.80
2018-04-08T09:01:36.040Z,10.30
2018-04-08T09:02:36.074Z,9.80
2018-04-08T09:03:36.096Z,10.20
2018-04-08T09:04:36.126Z,10.20
2018-04-08T09:05:36.158Z,9.60
2018-04-08T09:06:36.250Z,10.20
2018-04-08T09:07:36.217Z,10.40
2018-04-08T09:08:36.251Z,9.90
2018-04-08T09:09:36.285Z,10.20
2018-04-08T09:10:36.312Z,10.00
2018-04-08T09:11:36.345Z,9.80
2018-04-08T09:12:36.368Z,9.80
2018-04-08T09:13:36.449Z,10.40
2018-04-08T09:14:36.433Z,10.70
2018-04-08T09:15:36.464Z,9.80
2018-04-08T09:16:36.492Z,10.10
2018-04-08T09:17:36.529Z,10.30
2018-04-08T09:18:36.551Z,10.10
2018-04-08T09:19:36.591Z,9.80
2018-04-08T09:20:36.618Z,9.80
2018-04-08T09:21:36.650Z,10.70
2018-04-08T09:22:36.684Z,10.30
2018-04-08T09:23:36.712Z,10.80
2018-04-08T09:24:36.739Z,10.30
2018-04-08T09:25:36.768Z,10.30
2018-04-08T09:26:36.809Z,10.90
2018-04-08T09:27:36.832Z,11.00
2018-04-08T09:28:36.875Z,10.20
2018-04-08T09:29:36.917Z,11.60
2018-04-08T09:30:36.932Z,11.30
2018-04-08T09:31:36.959Z,10.80
2018-04-08T09:32:36.996Z,11.00
2018-04-08T09:33:37.022Z,10.80
2018-04-08T09:34:37.053Z,10.70
2018-04-08T09:35:37.087Z,11.50
2018-04-08T09:36:37.114Z,11.20
2018-04-08T09:37:37.150Z,11.10
2018-04-08T09:38:37.173Z,11.60
2018-04-08T09:39:37.207Z,11.80
2018-04-08T09:40:37.235Z,11.00
2018-04-08T09:41:37.267Z,10.40
2018-04-08T09:42:37.300Z,11.00
2018-04-08T09:43:37.327Z,11.00
2018-04-08T09:44:37.362Z,10.70
2018-04-08T09:45:37.388Z,10.90
2018-04-08T09:46:37.421Z,11.40
2018-04-08T09:47:37.443Z,11.00
2018-04-08T09:48:37.480Z,11.10
2018-04-08T09:49:37.510Z,11.30
2018-04-08T09:50:37.538Z,10.70
2018-04-08T09:51:37.573Z,11.70
2018-04-08T09:52:37.591Z,10.70
2018-04-08T09:53:37.620Z,11.50
2018-04-08T09:54:37.665Z,11.10
2018-04-08T09:55:37.680Z,10.80
2018-04-08T09:56:37.713Z,11.10
2018-04-08T09:57:37.741Z,11.00
2018-04-08T09:58:37.779Z,10.80
2018-04-08T09:59:37.801Z,10.30
2018-04-08T10:00:37.838Z,10.80
2018-04-08T10:01:37.864Z,11.40
2018-04-08T10:02:37.898Z,11.30
2018-04-08T10:03:37.926Z,11.30
2018-04-08T10:04:37.962Z,10.00
2018-04-08T10:05:38.060Z,10.20
2018-04-08T10:06:38.019Z,9.60
2018-04-08T10:07:38.054Z,9.80
2018-04-08T10:08:38.089Z,9.80
2018-04-08T10:09:38.118Z,9.30
2018-04-08T10:10:38.142Z,9.00
2018-04-08T10:11:38.177Z,9.30
2018-04-08T10:12:38.206Z,9.00
2018-04-08T10:13:38.240Z,9.20
2018-04-08T10:14:38.274Z,8.80
2018-04-08T10:15:38.305Z,9.30
2018-04-08T10:16:38.340Z,9.10
2018-04-08T10:17:38.380Z,9.50
2018-04-08T10:18:38.408Z,9.30
2018-04-08T10:19:38.432Z,9.80
2018-04-08T10:20:38.474Z,9.60
2018-04-08T10:21:38.511Z,9.60
2018-04-08T10:22:38.531Z,10.40
2018-04-08T10:23:38.567Z,10.50
2018-04-08T10:24:38.600Z,10.80
2018-04-08T10:25:38.633Z,10.20
2018-04-08T10:26:38.667Z,10.20
2018-04-08T10:27:38.700Z,10.60
2018-04-08T10:28:38.731Z,9.50
2018-04-08T10:29:38.760Z,9.50
2018-04-08T10:30:38.790Z,10.00
2018-04-08T10:31:38.819Z,9.80
2018-04-08T10:32:38.857Z,10.60
2018-04-08T10:33:38.890Z,10.30
2018-04-08T10:34:38.913Z,10.40
2018-04-08T10:35:38.950Z,10.40
2018-04-08T10:36:38.982Z,10.40
2018-04-08T10:37:39.013Z,10.00
2018-04-08T10:38:39.049Z,10.00
2018-04-08T10:39:39.076Z,10.00
2018-04-08T10:40:39.104Z,10.40
2018-04-08T10:41:39.135Z,11.00
2018-04-08T10:42:39.168Z,11.30
2018-04-08T10:43:39.201Z,11.00
2018-04-08T10:44:39.228Z,10.40
2018-04-08T10:45:39.258Z,11.20
2018-04-08T10:46:39.293Z,11.90
2018-04-08T10:47:39.326Z,11.10
2018-04-08T10:48:39.347Z,10.10
2018-04-08T10:49:39.377Z,10.40
2018-04-08T10:50:39.416Z,9.80
2018-04-08T10:51:39.470Z,10.10
2018-04-08T10:52:39.514Z,10.60
2018-04-08T10:53:39.504Z,10.20
2018-04-08T10:54:39.528Z,10.30
2018-04-08T10:55:39.561Z,10.90
2018-04-08T10:56:39.594Z,11.00
2018-04-08T10:57:39.622Z,11.20
2018-04-08T10:58:39.653Z,10.80
2018-04-08T10:59:39.678Z,11.30
2018-04-08T11:00:39.715Z,11.30
2018-04-08T11:01:39.742Z,11.60
2018-04-08T11:02:39.768Z,11.50
2018-04-08T11:03:39.797Z,11.40
2018-04-08T11:04:39.833Z,10.60
2018-04-08T11:05:39.862Z,11.00
2018-04-08T11:06:39.883Z,10.70
2018-04-08T11:07:39.915Z,10.70
2018-04-08T11:08:39.946Z,10.70
2018-04-08T11:09:39.970Z,11.30
2018-04-08T11:10:40.009Z,10.30
2018-04-08T11:11:40.031Z,9.90
2018-04-08T11:12:40.065Z,10.90
2018-04-08T11:13:40.108Z,10.60
2018-04-08T11:14:40.125Z,11.00
2018-04-08T11:15:40.148Z,11.50
2018-04-08T11:16:40.178Z,10.20
2018-04-08T11:17:40.204Z,11.10
2018-04-08T11:18:40.237Z,11.00
2018-04-08T11:19:40.263Z,10.80
2018-04-08T11:20:40.295Z,10.40
2018-04-08T11:21:40.318Z,10.20
2018-04-08T11:22:40.357Z,10.80
2018-04-08T11:23:40.377Z,10.40
2018-04-08T11:24:40.414Z,10.80
2018-04-08T11:25:40.439Z,10.20
2018-04-08T11:26:40.471Z,9.50
2018-04-08T11:27:40.500Z,9.50
2018-04-08T11:28:40.532Z,9.10
2018-04-08T11:29:40.560Z,8.50
2018-04-08T11:30:40.599Z,8.10
2018-04-08T11:31:40.621Z,8.40
2018-04-08T11:32:40.662Z,8.50
2018-04-08T11:33:40.683Z,7.70
2018-04-08T11:34:40.728Z,7.00
2018-04-08T11:35:40.747Z,7.40
2018-04-08T11:36:40.785Z,7.40
2018-04-08T11:37:40.810Z,8.00
2018-04-08T11:38:40.848Z,7.40
2018-04-08T11:39:40.877Z,7.50
2018-04-08T11:40:40.911Z,7.90
2018-04-08T11:41:40.945Z,7.70
2018-04-08T11:42:40.980Z,7.60
2018-04-08T11:43:41.010Z,7.20
2018-04-08T11:44:41.040Z,7.60
2018-04-08T11:45:41.070Z,7.90
2018-04-08T11:46:41.107Z,7.30
2018-04-08T11:47:41.145Z,8.10
2018-04-08T11:48:41.166Z,8.10
2018-04-08T11:49:41.208Z,6.70
2018-04-08T11:50:41.237Z,6.60
2018-04-08T11:51:41.270Z,5.60
2018-04-08T11:52:41.305Z,4.10
2018-04-08T11:53:41.339Z,4.40
2018-04-08T11:54:41.368Z,4.40
2018-04-08T11:55:41.399Z,4.30
2018-04-08T11:56:41.439Z,5.00
2018-04-08T11:57:41.467Z,5.40
2018-04-08T11:58:41.498Z,6.00
2018-04-08T11:59:41.533Z,6.60
2018-04-08T12:00:41.575Z,6.30
2018-04-08T12:01:41.599Z,6.60
2018-04-08T12:02:41.631Z,6.30
2018-04-08T12:03:41.660Z,6.90
2018-04-08T12:04:41.700Z,6.40
2018-04-08T12:05:41.723Z,6.40
2018-04-08T12:06:41.763Z,6.50
2018-04-08T12:07:41.795Z,6.30
2018-04-08T12:08:41.827Z,7.10
2018-04-08T12:09:41.854Z,8.10
2018-04-08T12:10:41.888Z,7.70
2018-04-08T12:11:41.918Z,7.70
2018-04-08T12:12:41.951Z,8.00
2018-04-08T12:13:41.978Z,8.00
2018-04-08T12:14:42.018Z,7.90
2018-04-08T12:15:42.044Z,7.20
2018-04-08T12:16:42.082Z,7.50
2018-04-08T12:17:42.108Z,7.60
2018-04-08T12:18:42.145Z,7.40
2018-04-08T12:19:42.175Z,7.80
2018-04-08T12:20:42.214Z,7.80
2018-04-08T12:21:42.248Z,7.50
2018-04-08T12:22:42.269Z,6.80
2018-04-08T12:23:42.309Z,6.90
2018-04-08T12:24:42.334Z,6.20
2018-04-08T12:25:42.373Z,7.20
2018-04-08T12:26:42.403Z,7.50
2018-04-08T12:27:42.442Z,7.20
2018-04-08T12:28:42.466Z,7.20
2018-04-08T12:29:42.501Z,7.10
2018-04-08T12:30:42.538Z,7.80
2018-04-08T12:31:42.568Z,7.50
2018-04-08T12:32:42.603Z,7.60
2018-04-08T12:33:42.634Z,7.50
2018-04-08T12:34:42.673Z,8.30
2018-04-08T12:35:42.698Z,8.10
2018-04-08T12:36:42.782Z,8.10
2018-04-08T12:37:42.763Z,7.50
2018-04-08T12:38:42.805Z,7.30
2018-04-08T12:39:42.836Z,7.20
2018-04-08T12:40:42.865Z,6.80
2018-04-08T12:41:42.903Z,7.70
2018-04-08T12:42:42.938Z,7.40
2018-04-08T12:43:42.973Z,7.80
2018-04-08T12:44:42.996Z,7.80
2018-04-08T12:45:43.031Z,7.80
2018-04-08T12:46:43.072Z,9.00
2018-04-08T12:47:43.105Z,9.00
2018-04-08T12:48:43.134Z,8.30
2018-04-08T12:49:43.167Z,7.90
2018-04-08T12:50:43.205Z,8.90
2018-04-08T12:51:43.261Z,8.50
2018-04-08T12:52:43.265Z,8.80
2018-04-08T12:53:43.301Z,9.40
2018-04-08T12:54:43.337Z,8.40
2018-04-08T12:55:43.369Z,7.90
2018-04-08T12:56:43.405Z,8.30
2018-04-08T12:57:43.438Z,7.50
2018-04-08T12:58:43.467Z,7.50
2018-04-08T12:59:43.544Z,7.10
2018-04-08T13:00:43.539Z,7.60
2018-04-08T13:01:43.566Z,7.90
2018-04-08T13:02:43.603Z,7.90
2018-04-08T13:03:43.639Z,8.00
2018-04-08T13:04:43.663Z,8.00
2018-04-08T13:05:43.693Z,8.50
2018-04-08T13:06:43.735Z,8.20
2018-04-08T13:07:43.821Z,7.00
2018-04-08T13:08:43.793Z,7.00
2018-04-08T13:09:43.823Z,7.20
2018-04-08T13:10:43.864Z,6.50